Time;durP1;ratioP1;P1;durP2;ratioP2;P2;SDS_P1;SDS_P2;PMS_P1;PMS_P2;Temp;Humidity;BMP_temperature;BMP_pressure;BME280_temperature;BME280_humidity;BME280_pressure;Samples;Min_cycle;Max_cycle;Signal;HPM_P1;HPM_P2
2024/03/14 00:00:22;;;;;;;26.50;13.32;;;10.40;99.90;;;;;;5029626;28;20095;-82
2024/03/14 00:02:48;;;;;;;32.60;14.60;;;10.40;99.90;;;;;;5012896;28;20025;-79
2024/03/14 00:05:14;;;;;;;26.83;13.85;;;10.40;99.90;;;;;;5009340;28;20025;-79
2024/03/14 00:07:40;;;;;;;32.55;14.18;;;10.30;99.90;;;;;;5010893;28;20567;-79
2024/03/14 00:10:06;;;;;;;29.73;14.02;;;10.40;99.90;;;;;;5011877;28;20128;-79
2024/03/14 00:12:32;;;;;;;31.00;14.43;;;10.40;99.90;;;;;;5027281;28;20435;-80
2024/03/14 00:14:57;;;;;;;31.25;14.70;;;10.40;99.90;;;;;;5009777;28;20026;-79
2024/03/14 00:17:23;;;;;;;31.25;14.85;;;10.40;99.90;;;;;;5026731;28;20087;-79
2024/03/14 00:19:49;;;;;;;34.22;15.27;;;10.40;99.90;;;;;;5012960;28;20105;-80
2024/03/14 00:22:17;;;;;;;31.00;15.00;;;10.40;99.90;;;;;;5025693;28;20018;-79
2024/03/14 00:24:42;;;;;;;33.13;15.07;;;10.40;99.90;;;;;;5012837;28;20032;-80
2024/03/14 00:27:08;;;;;;;37.08;14.70;;;10.40;99.90;;;;;;5013221;28;20112;-81
2024/03/14 00:29:34;;;;;;;33.63;14.80;;;10.40;99.90;;;;;;5028337;28;20108;-79
2024/03/14 00:32:02;;;;;;;37.97;14.50;;;10.30;99.90;;;;;;5029302;28;20021;-79
2024/03/14 00:34:28;;;;;;;29.17;13.65;;;10.40;99.90;;;;;;5028243;28;20064;-79
2024/03/14 00:36:54;;;;;;;30.50;14.38;;;10.40;99.90;;;;;;5010372;28;20100;-80
2024/03/14 00:39:21;;;;;;;30.85;14.27;;;10.40;99.90;;;;;;5030000;28;20103;-79
2024/03/14 00:41:48;;;;;;;32.95;14.20;;;10.40;99.90;;;;;;5007124;28;20039;-79
2024/03/14 00:44:13;;;;;;;34.17;15.30;;;10.40;99.90;;;;;;5026574;28;20026;-79
2024/03/14 00:46:40;;;;;;;33.60;14.23;;;10.40;99.90;;;;;;5028911;28;20525;-79
2024/03/14 00:49:07;;;;;;;27.33;12.82;;;10.40;99.90;;;;;;5030783;28;20017;-79
2024/03/14 00:51:33;;;;;;;33.90;15.55;;;10.40;99.90;;;;;;5025188;28;20101;-79
2024/03/14 00:54:01;;;;;;;30.70;14.10;;;10.40;99.90;;;;;;5030833;28;20083;-79
2024/03/14 00:56:30;;;;;;;28.52;13.00;;;10.40;99.90;;;;;;5006207;28;20029;-80
2024/03/14 00:58:56;;;;;;;32.00;14.30;;;10.30;99.90;;;;;;5002676;28;20030;-79
2024/03/14 01:01:24;;;;;;;26.65;13.90;;;10.40;99.90;;;;;;5012857;28;20122;-80
2024/03/14 01:03:50;;;;;;;30.90;13.45;;;10.40;99.90;;;;;;5011111;28;20029;-80
2024/03/14 01:06:16;;;;;;;27.92;12.15;;;10.40;99.90;;;;;;5009670;28;20517;-80
2024/03/14 01:08:42;;;;;;;33.15;13.40;;;10.40;99.90;;;;;;5026008;28;20053;-80
2024/03/14 01:11:07;;;;;;;34.67;14.05;;;10.40;99.90;;;;;;5011913;28;20029;-80
2024/03/14 01:13:33;;;;;;;31.05;13.60;;;10.40;99.90;;;;;;5030236;28;20040;-79
2024/03/14 01:15:59;;;;;;;30.45;12.45;;;10.40;99.90;;;;;;5012013;28;20080;-80
2024/03/14 01:18:24;;;;;;;27.65;12.38;;;10.40;99.90;;;;;;5012774;28;20030;-81
2024/03/14 01:20:50;;;;;;;26.70;13.68;;;10.40;99.90;;;;;;5012360;28;20029;-79
2024/03/14 01:23:16;;;;;;;25.42;12.45;;;10.40;99.90;;;;;;5011033;28;20024;-80
2024/03/14 01:25:42;;;;;;;30.08;13.52;;;10.30;99.90;;;;;;5011356;28;20136;-80
2024/03/14 01:28:08;;;;;;;26.05;12.00;;;10.40;99.90;;;;;;5029782;28;20432;-79
2024/03/14 01:30:34;;;;;;;22.70;11.68;;;10.40;99.90;;;;;;5029422;28;20026;-80
2024/03/14 01:33:00;;;;;;;26.58;11.95;;;10.40;99.90;;;;;;5026824;28;20152;-80
2024/03/14 01:35:25;;;;;;;26.15;12.05;;;10.40;99.90;;;;;;5012255;28;20052;-80
2024/03/14 01:37:51;;;;;;;28.05;12.18;;;10.40;99.90;;;;;;5011049;28;20013;-80
2024/03/14 01:40:17;;;;;;;25.92;12.15;;;10.40;99.90;;;;;;5011137;28;20017;-79
2024/03/14 01:42:44;;;;;;;24.27;11.20;;;10.40;99.90;;;;;;5029045;28;20032;-79
2024/03/14 01:45:14;;;;;;;21.77;9.68;;;10.40;99.90;;;;;;5009543;28;20025;-79
2024/03/14 01:47:40;;;;;;;;;;;10.40;99.90;;;;;;5008787;28;20025;-80
2024/03/14 01:50:08;;;;;;;17.83;9.18;;;10.40;99.90;;;;;;5012016;28;19909;-80
2024/03/14 01:52:36;;;;;;;23.75;10.88;;;10.40;99.90;;;;;;5027137;28;20014;-79
2024/03/14 01:55:03;;;;;;;19.55;10.00;;;10.40;99.90;;;;;;5010400;28;20045;-79
2024/03/14 01:57:30;;;;;;;19.58;10.15;;;10.40;99.90;;;;;;5007881;28;20053;-79
2024/03/14 01:59:58;;;;;;;20.80;8.95;;;10.40;99.90;;;;;;5011632;28;20049;-80
2024/03/14 02:02:24;;;;;;;22.88;10.65;;;10.40;99.90;;;;;;5010517;28;20553;-79
2024/03/14 02:05:13;;;;;;;22.58;9.88;;;10.40;99.90;;;;;;5012679;28;20028;-79
2024/03/14 02:07:39;;;;;;;16.15;8.63;;;10.40;99.90;;;;;;5009989;28;20483;-80
2024/03/14 02:10:12;;;;;;;20.67;9.55;;;10.30;99.90;;;;;;5028927;28;20420;-80
2024/03/14 02:12:39;;;;;;;20.73;10.15;;;10.30;99.90;;;;;;5025609;28;20403;-80
2024/03/14 02:15:08;;;;;;;21.83;10.57;;;10.30;99.90;;;;;;5027455;28;20048;-80
2024/03/14 02:17:35;;;;;;;18.52;9.57;;;10.30;99.90;;;;;;5011499;28;20045;-80
2024/03/14 02:20:01;;;;;;;18.35;9.13;;;10.40;99.90;;;;;;5026769;28;20029;-80
2024/03/14 02:22:29;;;;;;;17.42;10.02;;;10.30;99.90;;;;;;5002956;28;20080;-80
2024/03/14 02:24:54;;;;;;;20.88;9.82;;;10.30;99.90;;;;;;5009096;28;20480;-80
2024/03/14 02:27:20;;;;;;;21.70;9.65;;;10.30;99.90;;;;;;5011694;28;20021;-80
2024/03/14 02:29:46;;;;;;;17.50;8.63;;;10.40;99.90;;;;;;5029148;28;20070;-79
2024/03/14 02:32:11;;;;;;;16.25;8.85;;;10.40;99.90;;;;;;5009072;28;20108;-80
2024/03/14 02:34:37;;;;;;;20.88;10.07;;;10.30;99.90;;;;;;5009181;28;20022;-80
2024/03/14 02:37:03;;;;;;;18.13;9.30;;;10.40;99.90;;;;;;5027839;28;20036;-80
2024/03/14 02:39:31;;;;;;;18.13;8.90;;;10.30;99.90;;;;;;5010166;28;20026;-79
2024/03/14 02:42:00;;;;;;;21.35;9.85;;;10.40;99.90;;;;;;5026192;28;20440;-80
2024/03/14 02:44:26;;;;;;;21.00;9.55;;;10.40;99.90;;;;;;5032161;28;20021;-79
2024/03/14 02:46:51;;;;;;;19.80;9.57;;;10.40;99.90;;;;;;5029774;28;20449;-80
2024/03/14 02:49:21;;;;;;;17.95;8.40;;;10.40;99.90;;;;;;5014295;28;20241;-80
2024/03/14 02:51:47;;;;;;;19.05;9.07;;;10.40;99.90;;;;;;5031655;28;20025;-80
2024/03/14 02:54:15;;;;;;;16.33;8.95;;;10.30;99.90;;;;;;5011731;28;20026;-79
2024/03/14 02:56:42;;;;;;;17.67;8.88;;;10.40;99.90;;;;;;5013298;28;20078;-80
2024/03/14 02:59:10;;;;;;;19.65;9.15;;;10.40;99.90;;;;;;5012802;28;20033;-80
2024/03/14 03:01:37;;;;;;;20.40;8.63;;;10.40;99.90;;;;;;5031464;28;20036;-79
2024/03/14 03:04:03;;;;;;;19.60;10.25;;;10.40;99.90;;;;;;5012454;28;20025;-79
2024/03/14 03:06:29;;;;;;;20.98;8.68;;;10.40;99.90;;;;;;5013593;28;20022;-80
2024/03/14 03:08:57;;;;;;;15.02;8.25;;;10.30;99.90;;;;;;5009043;28;20033;-80
2024/03/14 03:11:23;;;;;;;19.10;8.95;;;10.40;99.90;;;;;;5012207;28;20025;-80
2024/03/14 03:13:49;;;;;;;20.33;9.05;;;10.30;99.90;;;;;;5006389;28;21138;-79
2024/03/14 03:16:14;;;;;;;17.13;8.68;;;10.40;99.90;;;;;;5032057;28;20545;-80
2024/03/14 03:18:40;;;;;;;18.23;8.98;;;10.30;99.90;;;;;;5014787;28;20020;-79
2024/03/14 03:21:06;;;;;;;15.18;7.95;;;10.40;99.90;;;;;;5010590;28;20014;-80
2024/03/14 03:23:31;;;;;;;21.38;9.13;;;10.40;99.90;;;;;;5014482;28;20041;-80
2024/03/14 03:25:57;;;;;;;18.52;8.75;;;10.40;99.90;;;;;;5031966;28;20079;-80
2024/03/14 03:28:23;;;;;;;17.63;8.48;;;10.30;99.90;;;;;;5012389;28;20091;-80
2024/03/14 03:30:49;;;;;;;17.15;8.50;;;10.30;99.90;;;;;;5031335;28;20025;-80
2024/03/14 03:33:18;;;;;;;17.85;8.85;;;10.30;99.90;;;;;;5027744;28;20104;-80
2024/03/14 03:35:45;;;;;;;20.65;8.75;;;10.40;99.90;;;;;;5013978;28;20061;-80
2024/03/14 03:38:13;;;;;;;18.63;8.93;;;10.30;99.90;;;;;;5012377;28;20053;-80
2024/03/14 03:40:43;;;;;;;18.48;8.40;;;10.30;99.90;;;;;;5006901;28;20033;-80
2024/03/14 03:43:11;;;;;;;19.52;8.77;;;10.30;99.90;;;;;;5013242;28;20021;-80
2024/03/14 03:45:36;;;;;;;19.42;9.38;;;10.30;99.90;;;;;;5009477;28;20057;-80
2024/03/14 03:48:02;;;;;;;19.77;8.43;;;10.30;99.90;;;;;;5030753;28;20079;-80
2024/03/14 03:50:28;;;;;;;18.80;9.02;;;10.30;99.90;;;;;;5013756;28;20055;-81
2024/03/14 03:52:54;;;;;;;21.20;9.27;;;10.30;99.90;;;;;;5028539;28;20033;-79
2024/03/14 03:55:19;;;;;;;22.27;8.60;;;10.30;99.90;;;;;;5027508;28;20387;-80
2024/03/14 03:57:46;;;;;;;24.05;9.25;;;10.30;99.90;;;;;;5031613;28;20021;-79
2024/03/14 04:02:57;;;;;;;21.00;9.25;;;10.30;99.90;;;;;;5030819;28;20549;-79
2024/03/14 04:05:25;;;;;;;21.55;9.55;;;10.30;99.90;;;;;;5014043;28;20113;-79
2024/03/14 04:07:51;;;;;;;19.98;9.48;;;10.30;99.90;;;;;;5010818;28;20020;-80
2024/03/14 04:10:17;;;;;;;24.15;10.35;;;10.30;99.90;;;;;;5030857;28;20022;-80
2024/03/14 04:12:44;;;;;;;24.30;10.40;;;10.30;99.90;;;;;;5029006;28;20026;-80
2024/03/14 04:15:10;;;;;;;24.67;10.30;;;10.30;99.90;;;;;;5012357;28;20042;-80
2024/03/14 04:17:37;;;;;;;25.77;10.45;;;10.30;99.90;;;;;;5008249;28;20614;-80
2024/03/14 04:20:10;;;;;;;26.27;10.70;;;10.30;99.90;;;;;;5031391;28;20024;-79
2024/03/14 04:22:37;;;;;;;26.17;10.05;;;10.30;99.90;;;;;;5013504;28;20018;-80
2024/03/14 04:25:10;;;;;;;27.42;10.60;;;10.30;99.90;;;;;;5012242;28;20510;-79
2024/03/14 04:27:36;;;;;;;21.85;9.45;;;10.30;99.90;;;;;;5031199;28;20105;-79
2024/03/14 04:30:03;;;;;;;25.15;10.18;;;10.30;99.90;;;;;;5030505;28;20111;-79
2024/03/14 04:32:28;;;;;;;26.48;10.95;;;10.30;99.90;;;;;;5029377;28;20021;-80
2024/03/14 04:34:54;;;;;;;18.35;8.38;;;10.30;99.90;;;;;;5013363;28;20500;-80
2024/03/14 04:37:20;;;;;;;24.00;9.32;;;10.30;99.90;;;;;;5009138;28;20036;-80
2024/03/14 04:39:47;;;;;;;26.35;9.02;;;10.30;99.90;;;;;;5030890;28;20438;-80
2024/03/14 04:42:12;;;;;;;21.80;9.63;;;10.30;99.90;;;;;;5012801;28;20091;-80
2024/03/14 04:44:39;;;;;;;25.45;10.25;;;10.30;99.90;;;;;;5030763;28;20049;-80
2024/03/14 04:47:10;;;;;;;19.20;9.07;;;10.30;99.90;;;;;;5026351;28;20027;-80
2024/03/14 04:49:38;;;;;;;;;;;10.40;99.90;;;;;;5013667;28;20022;-80
2024/03/14 04:52:04;;;;;;;19.40;8.73;;;10.30;99.90;;;;;;5011245;28;19905;-79
2024/03/14 04:54:32;;;;;;;20.40;8.65;;;10.30;99.90;;;;;;5010368;28;20108;-80
2024/03/14 04:57:01;;;;;;;19.92;8.30;;;10.40;99.90;;;;;;5008039;28;20116;-81
2024/03/14 04:59:27;;;;;;;17.77;7.95;;;10.30;99.90;;;;;;5012687;28;20104;-79
2024/03/14 05:01:53;;;;;;;20.77;8.18;;;10.30;99.90;;;;;;5030175;28;20104;-79
2024/03/14 05:04:19;;;;;;;19.23;9.07;;;10.30;99.90;;;;;;5006203;28;20018;-81
2024/03/14 05:06:45;;;;;;;22.00;8.32;;;10.30;99.90;;;;;;5012177;28;20075;-80
2024/03/14 05:09:11;;;;;;;16.00;7.50;;;10.40;99.90;;;;;;5028263;28;20018;-80
2024/03/14 05:11:37;;;;;;;15.57;7.55;;;10.30;99.90;;;;;;5011451;28;20032;-80
2024/03/14 05:14:04;;;;;;;17.83;8.18;;;10.30;99.90;;;;;;5006092;28;20017;-79
2024/03/14 05:16:30;;;;;;;13.85;7.50;;;10.30;99.90;;;;;;5012364;28;20116;-79
2024/03/14 05:18:56;;;;;;;16.05;7.25;;;10.30;99.90;;;;;;5029234;28;20549;-79
2024/03/14 05:21:21;;;;;;;13.82;6.78;;;10.30;99.90;;;;;;5012026;28;20022;-79
2024/03/14 05:23:47;;;;;;;17.23;7.72;;;10.30;99.90;;;;;;5011807;28;20025;-79
2024/03/14 05:26:12;;;;;;;16.75;7.53;;;10.30;99.90;;;;;;5006495;28;20033;-80
2024/03/14 05:28:38;;;;;;;17.13;6.90;;;10.30;99.90;;;;;;5030186;28;20086;-80
2024/03/14 05:31:03;;;;;;;17.83;7.57;;;10.40;99.90;;;;;;5010289;28;20040;-80
2024/03/14 05:33:29;;;;;;;14.80;7.25;;;10.30;99.90;;;;;;5012086;28;20108;-80
2024/03/14 05:35:55;;;;;;;15.35;7.53;;;10.30;99.90;;;;;;5030017;28;20487;-80
2024/03/14 05:38:20;;;;;;;16.15;6.82;;;10.30;99.90;;;;;;5026914;28;20033;-81
2024/03/14 05:40:46;;;;;;;16.67;8.00;;;10.30;99.90;;;;;;5030007;28;20029;-80
2024/03/14 05:43:12;;;;;;;14.30;6.88;;;10.30;99.90;;;;;;5011541;28;20024;-80
2024/03/14 05:45:37;;;;;;;13.82;6.68;;;10.30;99.90;;;;;;5009679;28;20120;-79
2024/03/14 05:48:11;;;;;;;19.10;7.28;;;10.30;99.90;;;;;;5011923;28;20064;-79
2024/03/14 05:50:37;;;;;;;15.77;7.82;;;10.30;99.90;;;;;;5005030;28;20018;-79
2024/03/14 05:53:04;;;;;;;13.02;5.82;;;10.30;99.90;;;;;;5011807;28;20108;-80
2024/03/14 05:55:32;;;;;;;13.85;6.95;;;10.30;99.90;;;;;;5027822;28;20022;-80
2024/03/14 05:57:57;;;;;;;16.98;7.15;;;10.40;99.90;;;;;;5023845;28;20468;-80
2024/03/14 06:00:24;;;;;;;12.85;6.95;;;10.30;99.90;;;;;;5018079;28;20030;-79
2024/03/14 06:02:50;;;;;;;19.15;7.05;;;10.30;99.90;;;;;;5008442;28;20049;-81
2024/03/14 06:05:15;;;;;;;19.02;7.93;;;10.30;99.90;;;;;;5008716;28;20024;-80
2024/03/14 06:07:41;;;;;;;14.32;7.10;;;10.30;99.90;;;;;;5007402;28;20502;-79
2024/03/14 06:10:09;;;;;;;16.75;7.03;;;10.30;99.90;;;;;;5008133;28;20562;-80
2024/03/14 06:12:38;;;;;;;16.30;6.80;;;10.30;99.90;;;;;;5029010;28;20017;-79
2024/03/14 06:15:08;;;;;;;17.63;7.47;;;10.30;99.90;;;;;;5005744;28;20462;-79
2024/03/14 06:17:34;;;;;;;16.90;8.05;;;10.30;99.90;;;;;;5012593;28;20053;-79
2024/03/14 06:20:00;;;;;;;19.40;7.60;;;10.30;99.90;;;;;;5014535;28;20428;-80
2024/03/14 06:22:26;;;;;;;25.63;9.38;;;10.30;99.90;;;;;;5030281;28;20033;-80
2024/03/14 06:24:51;;;;;;;24.83;9.00;;;10.30;99.90;;;;;;5014656;28;20022;-79
2024/03/14 06:27:17;;;;;;;22.02;8.27;;;10.30;99.90;;;;;;5015174;28;20098;-78
2024/03/14 06:29:42;;;;;;;22.90;8.82;;;10.30;99.90;;;;;;5013317;28;20022;-79
2024/03/14 06:32:09;;;;;;;26.00;9.13;;;10.30;99.90;;;;;;5009331;28;20034;-80
2024/03/14 06:34:36;;;;;;;23.83;8.23;;;10.30;99.90;;;;;;5026482;28;20025;-79
2024/03/14 06:37:02;;;;;;;26.65;8.88;;;10.30;99.90;;;;;;5009835;28;20112;-79
2024/03/14 06:39:28;;;;;;;22.60;8.73;;;10.30;99.90;;;;;;5014343;28;20511;-79
2024/03/14 06:41:54;;;;;;;32.75;10.07;;;10.30;99.90;;;;;;5013888;28;20029;-80
2024/03/14 06:44:19;;;;;;;30.02;9.85;;;10.30;99.90;;;;;;5011366;28;20483;-81
2024/03/14 06:46:45;;;;;;;28.02;9.93;;;10.30;99.90;;;;;;5014656;28;20040;-80
2024/03/14 06:49:14;;;;;;;27.85;9.52;;;10.30;99.90;;;;;;5031392;28;20156;-80
2024/03/14 06:51:41;;;;;;;25.75;8.77;;;10.30;99.90;;;;;;5032281;28;20049;-80
2024/03/14 06:54:07;;;;;;;22.50;8.70;;;10.30;99.90;;;;;;5012833;28;20044;-80
2024/03/14 06:56:35;;;;;;;24.00;9.13;;;10.30;99.90;;;;;;5033743;28;20442;-79
2024/03/14 06:59:04;;;;;;;22.92;9.10;;;10.30;99.90;;;;;;5032895;28;20124;-80
2024/03/14 07:01:31;;;;;;;28.42;10.07;;;10.30;99.90;;;;;;5014584;28;20542;-80
2024/03/14 07:04:01;;;;;;;32.78;9.68;;;10.30;99.90;;;;;;5013755;28;20121;-79
2024/03/14 07:06:27;;;;;;;24.52;9.02;;;10.40;99.90;;;;;;5014376;28;20105;-79
2024/03/14 07:08:59;;;;;;;22.98;9.55;;;10.40;99.90;;;;;;5032224;28;20121;-79
2024/03/14 07:11:28;;;;;;;23.50;9.07;;;10.40;99.90;;;;;;5032304;28;20029;-79
2024/03/14 07:14:00;;;;;;;26.50;8.97;;;10.40;99.90;;;;;;5013261;28;20053;-80
2024/03/14 07:16:25;;;;;;;22.77;8.73;;;10.30;99.90;;;;;;5030193;28;20789;-80
2024/03/14 07:18:55;;;;;;;29.38;9.27;;;10.40;99.90;;;;;;5005469;28;20058;-80
2024/03/14 07:21:22;;;;;;;25.85;9.00;;;10.40;99.90;;;;;;5010820;28;20512;-81
2024/03/14 07:23:48;;;;;;;23.20;9.43;;;10.40;99.90;;;;;;5027390;28;20021;-79
2024/03/14 07:26:22;;;;;;;19.80;8.45;;;10.40;99.90;;;;;;5013544;28;20029;-80
2024/03/14 07:28:48;;;;;;;19.92;9.20;;;10.40;99.90;;;;;;5029003;28;20025;-80
2024/03/14 07:31:14;;;;;;;16.00;6.63;;;10.70;99.90;;;;;;5013291;28;20573;-80
2024/03/14 07:33:41;;;;;;;20.58;7.25;;;10.60;99.90;;;;;;5032440;28;20549;-79
2024/03/14 07:36:08;;;;;;;18.55;7.63;;;10.50;99.90;;;;;;5009859;28;20625;-79
2024/03/14 07:38:34;;;;;;;18.35;7.55;;;10.50;99.90;;;;;;5031825;28;20052;-81
2024/03/14 07:41:00;;;;;;;18.08;7.55;;;10.40;99.90;;;;;;5032091;28;20014;-81
2024/03/14 07:43:27;;;;;;;20.08;7.32;;;10.40;99.90;;;;;;5013997;28;20029;-81
2024/03/14 07:45:53;;;;;;;15.68;7.53;;;10.40;99.90;;;;;;5014180;28;20021;-81
2024/03/14 07:48:20;;;;;;;18.17;7.15;;;10.40;99.90;;;;;;5010386;28;20557;-80
2024/03/14 07:50:46;;;;;;;20.10;8.23;;;10.40;99.90;;;;;;5031629;28;20022;-80
2024/03/14 07:53:14;;;;;;;19.30;7.88;;;10.40;99.90;;;;;;5028203;28;20417;-80
2024/03/14 07:55:40;;;;;;;20.88;8.38;;;10.40;99.90;;;;;;5013861;28;20281;-80
2024/03/14 07:58:06;;;;;;;20.27;8.05;;;10.40;99.90;;;;;;5013411;28;20480;-81
2024/03/14 08:00:32;;;;;;;17.55;7.80;;;10.40;99.90;;;;;;5013701;28;20510;-81
2024/03/14 08:02:58;;;;;;;17.25;7.75;;;10.50;99.90;;;;;;5013766;28;20026;-81
2024/03/14 08:05:25;;;;;;;23.08;7.85;;;10.40;99.90;;;;;;5013438;28;20022;-81
2024/03/14 08:07:51;;;;;;;20.70;7.78;;;10.40;99.90;;;;;;5029485;28;20145;-80
2024/03/14 08:10:16;;;;;;;18.55;8.38;;;10.40;99.90;;;;;;5030951;28;20101;-80
2024/03/14 08:12:42;;;;;;;17.13;8.52;;;10.50;99.90;;;;;;5013491;28;20017;-80
2024/03/14 08:15:17;;;;;;;21.70;8.55;;;10.50;99.90;;;;;;5031625;28;20028;-80
2024/03/14 08:17:44;;;;;;;22.85;8.63;;;10.50;99.90;;;;;;5030097;28;20112;-80
2024/03/14 08:20:24;;;;;;;21.50;8.55;;;10.50;99.90;;;;;;5009264;28;20033;-80
2024/03/14 08:22:52;;;;;;;22.33;9.10;;;10.50;99.90;;;;;;5011350;28;20055;-80
2024/03/14 08:25:24;;;;;;;27.23;8.73;;;10.50;99.90;;;;;;5009355;28;20025;-80
2024/03/14 08:27:50;;;;;;;23.13;9.20;;;10.50;99.90;;;;;;5005412;28;20353;-80
2024/03/14 08:30:17;;;;;;;28.83;9.38;;;10.50;99.90;;;;;;5025007;28;20022;-82
2024/03/14 08:32:43;;;;;;;24.20;9.38;;;10.50;99.90;;;;;;5011962;28;20399;-82
2024/03/14 08:35:13;;;;;;;20.98;9.38;;;10.60;99.90;;;;;;5026982;28;20029;-81
2024/03/14 08:37:41;;;;;;;23.85;9.80;;;10.60;99.90;;;;;;5030137;28;20029;-81
2024/03/14 08:40:09;;;;;;;21.58;8.45;;;10.70;99.90;;;;;;5029800;28;20022;-80
2024/03/14 08:42:37;;;;;;;25.17;9.25;;;10.70;99.90;;;;;;5030932;28;20018;-81
2024/03/14 08:45:03;;;;;;;21.35;8.48;;;10.80;99.90;;;;;;5030687;28;20026;-80
2024/03/14 08:47:29;;;;;;;22.27;8.95;;;10.80;99.90;;;;;;5012097;28;20021;-81
2024/03/14 08:49:55;;;;;;;23.25;9.07;;;10.80;99.90;;;;;;5009099;28;20025;-80
2024/03/14 08:52:26;;;;;;;28.08;10.30;;;10.90;99.90;;;;;;5011570;28;20415;-81
2024/03/14 08:54:52;;;;;;;19.73;8.50;;;10.90;99.90;;;;;;5027508;28;20013;-79
2024/03/14 08:57:18;;;;;;;24.58;8.85;;;11.10;99.90;;;;;;5030273;28;20030;-79
2024/03/14 08:59:44;;;;;;;25.00;9.05;;;11.10;99.90;;;;;;5030352;28;20036;-80
2024/03/14 09:02:11;;;;;;;24.88;8.05;;;11.20;99.90;;;;;;5012568;28;20022;-80
2024/03/14 09:04:41;;;;;;;19.30;8.32;;;11.30;99.90;;;;;;5013106;28;20028;-82
2024/03/14 09:07:07;;;;;;;18.70;8.27;;;11.30;99.90;;;;;;5009862;28;20035;-81
2024/03/14 09:09:35;;;;;;;16.20;7.03;;;11.30;99.90;;;;;;5007621;28;20108;-82
2024/03/14 09:12:13;;;;;;;19.13;7.18;;;11.40;99.90;;;;;;5012469;28;20403;-80
2024/03/14 09:14:40;;;;;;;13.73;6.72;;;11.50;99.90;;;;;;5009638;28;20029;-79
2024/03/14 09:17:07;;;;;;;12.60;6.03;;;11.60;99.90;;;;;;5026412;28;20511;-80
2024/03/14 09:19:33;;;;;;;15.75;6.68;;;11.70;99.90;;;;;;5012106;28;20630;-80
2024/03/14 09:21:58;;;;;;;17.02;6.05;;;11.70;99.90;;;;;;5026812;28;20052;-79
2024/03/14 09:24:24;;;;;;;14.27;6.28;;;11.80;99.90;;;;;;5011917;28;20025;-80
2024/03/14 09:26:49;;;;;;;12.75;6.35;;;11.90;99.90;;;;;;5012327;28;20078;-80
2024/03/14 09:29:15;;;;;;;13.13;6.10;;;11.90;99.90;;;;;;5008492;28;20055;-81
2024/03/14 09:31:44;;;;;;;13.70;5.82;;;11.90;99.90;;;;;;5011563;28;20080;-82
2024/03/14 09:34:11;;;;;;;13.10;5.60;;;11.90;99.90;;;;;;5011960;28;20022;-83
2024/03/14 09:36:39;;;;;;;15.05;5.85;;;11.80;99.90;;;;;;5005070;28;20018;-83
2024/03/14 09:39:15;;;;;;;11.95;5.30;;;11.80;99.90;;;;;;5006882;28;20029;-83
2024/03/14 09:41:41;;;;;;;11.80;5.38;;;11.90;99.90;;;;;;5008948;28;20067;-83
2024/03/14 09:44:06;;;;;;;14.63;5.18;;;11.90;99.90;;;;;;5027300;28;20044;-82
2024/03/14 09:46:34;;;;;;;9.85;4.35;;;11.70;99.90;;;;;;5029207;28;20025;-82
2024/03/14 09:49:01;;;;;;;10.45;4.80;;;11.40;99.90;;;;;;5011481;28;20021;-82
2024/03/14 09:51:27;;;;;;;9.38;4.78;;;11.30;99.90;;;;;;5007066;28;20025;-82
2024/03/14 09:53:56;;;;;;;8.05;4.30;;;11.30;99.90;;;;;;5011780;28;20014;-81
2024/03/14 09:56:22;;;;;;;7.20;3.67;;;11.30;99.90;;;;;;5009838;28;20491;-82
2024/03/14 09:58:48;;;;;;;7.72;4.63;;;11.30;99.90;;;;;;5011091;28;20029;-81
2024/03/14 10:01:15;;;;;;;6.93;4.13;;;11.30;99.90;;;;;;5029551;28;20104;-82
2024/03/14 10:03:41;;;;;;;10.02;4.80;;;11.40;99.90;;;;;;5028158;28;20372;-82
2024/03/14 10:06:18;;;;;;;10.65;5.40;;;11.50;99.90;;;;;;5010247;28;20044;-82
2024/03/14 10:08:47;;;;;;;8.85;4.60;;;11.60;99.90;;;;;;5011752;28;20495;-81
2024/03/14 10:11:13;;;;;;;10.60;4.93;;;11.80;99.90;;;;;;5007629;28;20033;-81
2024/03/14 10:13:41;;;;;;;9.32;5.10;;;11.90;99.90;;;;;;5010343;28;20042;-81
2024/03/14 10:16:06;;;;;;;10.43;4.85;;;12.10;99.90;;;;;;4999498;28;20029;-82
2024/03/14 10:18:33;;;;;;;15.40;5.55;;;12.00;99.90;;;;;;5010953;28;20442;-83
2024/03/14 10:21:03;;;;;;;6.97;4.03;;;12.00;99.90;;;;;;5027778;28;20023;-81
2024/03/14 10:23:29;;;;;;;7.55;3.70;;;11.90;99.90;;;;;;5026264;28;20025;-81
2024/03/14 10:25:55;;;;;;;6.55;3.35;;;12.10;99.90;;;;;;5011534;28;20022;-82
2024/03/14 10:28:27;;;;;;;8.23;3.75;;;12.10;99.90;;;;;;5025607;28;20108;-82
2024/03/14 10:30:57;;;;;;;8.27;4.60;;;11.90;99.90;;;;;;5010455;28;20594;-83
2024/03/14 10:33:26;;;;;;;7.63;4.30;;;11.90;99.90;;;;;;5028252;28;20033;-81
2024/03/14 10:36:00;;;;;;;6.63;3.75;;;11.80;99.90;;;;;;5028335;28;20021;-81
2024/03/14 10:38:27;;;;;;;5.95;3.28;;;11.70;99.90;;;;;;5028463;28;20014;-82
2024/03/14 10:40:58;;;;;;;4.60;3.03;;;11.70;99.90;;;;;;5026254;28;20430;-81
2024/03/14 10:43:36;;;;;;;5.15;2.85;;;11.60;99.90;;;;;;5007788;28;20071;-82
2024/03/14 10:46:04;;;;;;;5.97;2.85;;;11.60;99.90;;;;;;5006877;28;20033;-81
2024/03/14 10:48:29;;;;;;;5.40;3.05;;;11.50;99.90;;;;;;5005842;28;20545;-82
2024/03/14 10:50:57;;;;;;;5.07;3.28;;;11.50;99.90;;;;;;5028565;28;20034;-81
2024/03/14 10:53:24;;;;;;;8.63;2.85;;;11.60;99.90;;;;;;5009772;28;20048;-82
2024/03/14 10:55:55;;;;;;;4.20;2.45;;;11.50;99.90;;;;;;5010719;28;20029;-82
2024/03/14 10:58:25;;;;;;;4.95;2.92;;;11.50;99.90;;;;;;5011064;28;20067;-82
2024/03/14 11:00:52;;;;;;;4.68;2.83;;;11.50;99.90;;;;;;5011080;28;20483;-82
2024/03/14 11:03:18;;;;;;;4.53;2.58;;;11.60;99.90;;;;;;5012800;28;20072;-82
2024/03/14 11:05:48;;;;;;;17.38;3.20;;;11.70;99.90;;;;;;5010982;28;20428;-81
2024/03/14 11:08:16;;;;;;;5.55;2.70;;;11.80;99.90;;;;;;5033712;28;20034;-81
2024/03/14 11:10:46;;;;;;;6.47;3.65;;;11.80;99.90;;;;;;5008011;28;20488;-81
2024/03/14 11:13:14;;;;;;;5.85;3.30;;;11.80;99.90;;;;;;5014766;28;20032;-82
2024/03/14 11:15:40;;;;;;;4.30;2.47;;;11.80;99.90;;;;;;5010150;28;20049;-81
2024/03/14 11:18:12;;;;;;;6.75;2.67;;;11.80;99.90;;;;;;5011210;28;20447;-82
2024/03/14 11:20:40;;;;;;;5.60;2.75;;;11.90;99.90;;;;;;5013577;28;20025;-81
2024/03/14 11:23:12;;;;;;;5.10;3.00;;;11.90;99.90;;;;;;5014526;28;20025;-82
2024/03/14 11:25:42;;;;;;;6.22;2.50;;;11.90;99.90;;;;;;5010967;28;20033;-81
2024/03/14 11:28:12;;;;;;;5.88;2.92;;;11.90;99.90;;;;;;5030663;28;20049;-82
2024/03/14 11:30:38;;;;;;;4.10;3.00;;;11.90;99.90;;;;;;5012807;28;20040;-81
2024/03/14 11:33:07;;;;;;;6.47;3.15;;;11.90;99.90;;;;;;5014432;28;20379;-82
2024/03/14 11:35:34;;;;;;;6.23;3.50;;;11.90;99.90;;;;;;5010039;28;20423;-81
2024/03/14 11:37:59;;;;;;;4.00;3.00;;;12.00;99.90;;;;;;5012210;28;20025;-81
2024/03/14 11:40:30;;;;;;;3.65;2.50;;;12.10;99.90;;;;;;5014028;28;20014;-82
2024/03/14 11:42:58;;;;;;;3.30;2.65;;;12.10;99.90;;;;;;5020072;28;20037;-81
2024/03/14 11:45:27;;;;;;;10.88;2.85;;;12.30;99.90;;;;;;5013282;28;20014;-82
2024/03/14 11:47:53;;;;;;;4.13;2.75;;;12.30;99.90;;;;;;5013323;28;20033;-81
2024/03/14 11:50:22;;;;;;;5.15;2.63;;;12.30;99.90;;;;;;5008197;28;20503;-82
2024/03/14 11:52:50;;;;;;;4.43;2.60;;;12.40;99.90;;;;;;5029494;28;20540;-83
2024/03/14 11:55:18;;;;;;;5.47;2.78;;;12.30;99.90;;;;;;5031265;28;20036;-81
2024/03/14 11:57:50;;;;;;;4.15;2.70;;;12.30;99.90;;;;;;5003371;28;20056;-82
2024/03/14 12:00:25;;;;;;;4.95;3.05;;;12.30;99.90;;;;;;5010421;28;20030;-81
2024/03/14 12:02:52;;;;;;;5.80;3.05;;;12.30;99.90;;;;;;5012844;28;20023;-82
2024/03/14 12:05:23;;;;;;;4.13;3.08;;;12.30;99.90;;;;;;5013190;28;20040;-82
2024/03/14 12:07:54;;;;;;;6.40;4.15;;;12.30;99.90;;;;;;5009993;28;20091;-81
2024/03/14 12:10:23;;;;;;;6.40;3.10;;;12.30;99.90;;;;;;5012057;28;20034;-82
2024/03/14 12:12:54;;;;;;;3.15;2.30;;;12.40;99.90;;;;;;5010161;28;20521;-82
2024/03/14 12:15:23;;;;;;;12.38;2.90;;;12.50;99.90;;;;;;5012867;28;20033;-82
2024/03/14 12:17:58;;;;;;;3.50;2.20;;;12.50;99.90;;;;;;5011819;28;20013;-82
2024/03/14 12:20:28;;;;;;;5.20;2.40;;;12.50;99.90;;;;;;5030524;28;20068;-81
2024/03/14 12:22:57;;;;;;;4.63;2.28;;;12.60;99.90;;;;;;5008991;28;20049;-82
2024/03/14 12:25:24;;;;;;;3.50;2.10;;;12.70;99.90;;;;;;5030385;28;20387;-82
2024/03/14 12:27:51;;;;;;;11.35;2.63;;;12.80;99.90;;;;;;5009224;28;20451;-81
2024/03/14 12:30:17;;;;;;;5.53;2.38;;;12.70;99.90;;;;;;5030693;28;20545;-81
2024/03/14 12:32:56;;;;;;;2.45;1.83;;;12.80;99.90;;;;;;5010651;28;20080;-83
2024/03/14 12:35:23;;;;;;;3.65;2.42;;;12.90;99.90;;;;;;5011757;28;20043;-82
2024/03/14 12:37:49;;;;;;;3.17;2.08;;;12.80;99.90;;;;;;5030552;28;20100;-82
2024/03/14 12:40:19;;;;;;;5.55;2.60;;;12.80;99.90;;;;;;5011723;28;20045;-82